createdAt,value
2023-04-02T00:03:08.870Z,99.99
2023-04-02T00:04:08.870Z,99.99
2023-04-02T00:09:08.715Z,99.99
2023-04-02T00:10:08.714Z,99.99
2023-04-02T00:11:08.695Z,99.99
2023-04-02T00:12:08.687Z,99.99
2023-04-02T00:13:08.668Z,99.99
2023-04-02T00:14:08.662Z,99.99
2023-04-02T00:15:08.646Z,99.99
2023-04-02T00:16:08.678Z,99.99
2023-04-02T00:18:08.659Z,99.99
2023-04-02T00:19:08.632Z,99.99
2023-04-02T00:20:14.608Z,99.99
2023-04-02T00:21:08.583Z,99.99
2023-04-02T00:22:08.582Z,99.99
2023-04-02T00:23:08.563Z,99.99
2023-04-02T00:24:08.564Z,99.99
2023-04-02T00:25:08.544Z,99.99
2023-04-02T00:26:08.747Z,99.99
2023-04-02T00:27:08.524Z,99.99
2023-04-02T00:28:08.521Z,99.99
2023-04-02T00:29:08.506Z,99.99
2023-04-02T00:30:08.500Z,99.99
2023-04-02T00:31:08.485Z,99.99
2023-04-02T00:32:08.557Z,99.99
2023-04-02T00:33:08.504Z,99.99
2023-04-02T00:34:08.457Z,99.99
2023-04-02T00:35:08.464Z,99.99
2023-04-02T00:36:08.507Z,99.99
2023-04-02T00:37:08.426Z,99.99
2023-04-02T00:38:08.418Z,99.99
2023-04-02T00:39:08.406Z,99.99
2023-04-02T00:40:08.599Z,99.99
2023-04-02T00:41:08.379Z,99.99
2023-04-02T00:42:08.374Z,99.99
2023-04-02T00:43:08.368Z,99.99
2023-04-02T00:44:08.353Z,99.99
2023-04-02T00:45:08.338Z,99.99
2023-04-02T00:46:08.368Z,99.99
2023-04-02T00:47:08.320Z,99.99
2023-04-02T00:48:08.325Z,99.99
2023-04-02T00:49:08.297Z,99.99
2023-04-02T00:50:08.295Z,99.99
2023-04-02T00:51:08.299Z,99.99
2023-04-02T00:52:08.271Z,99.99
2023-04-02T00:53:08.264Z,99.99
2023-04-02T00:54:08.453Z,99.99
2023-04-02T00:55:08.237Z,99.99
2023-04-02T00:56:08.234Z,99.99
2023-04-02T00:57:08.477Z,99.99
2023-04-02T00:58:08.215Z,99.99
2023-04-02T00:59:08.194Z,99.99
2023-04-02T01:00:08.192Z,99.99
2023-04-02T01:01:08.200Z,99.99
2023-04-02T01:02:08.226Z,99.99
2023-04-02T01:04:08.147Z,99.99
2023-04-02T01:05:08.126Z,99.99
2023-04-02T01:06:08.129Z,99.99
2023-04-02T01:07:08.131Z,99.99
2023-04-02T01:08:08.114Z,99.99
2023-04-02T01:09:08.106Z,99.99
2023-04-02T01:10:08.088Z,99.99
2023-04-02T01:11:08.066Z,99.99
2023-04-02T01:12:08.077Z,99.99
2023-04-02T01:13:08.047Z,99.99
2023-04-02T01:14:08.352Z,99.99
2023-04-02T01:15:08.032Z,99.99
2023-04-02T01:16:08.111Z,99.99
2023-04-02T01:17:08.003Z,99.99
2023-04-02T01:18:08.056Z,99.99
2023-04-02T01:19:07.996Z,99.99
2023-04-02T01:20:07.992Z,99.99
2023-04-02T01:21:07.963Z,99.99
2023-04-02T01:22:07.957Z,99.99
2023-04-02T01:23:07.963Z,99.99
2023-04-02T01:24:07.944Z,99.99
2023-04-02T01:25:07.921Z,99.99
2023-04-02T01:26:07.925Z,99.99
2023-04-02T01:27:07.900Z,99.99
2023-04-02T01:28:07.892Z,99.99
2023-04-02T01:29:07.874Z,99.99
2023-04-02T01:30:07.876Z,99.99
2023-04-02T01:31:07.905Z,99.99
2023-04-02T01:32:07.857Z,99.99
2023-04-02T01:33:07.855Z,99.99
2023-04-02T01:34:07.832Z,99.99
2023-04-02T01:35:07.814Z,99.99
2023-04-02T01:36:07.837Z,99.99
2023-04-02T01:37:07.989Z,99.99
2023-04-02T01:38:07.792Z,99.99
2023-04-02T01:39:07.795Z,99.99
2023-04-02T01:40:07.778Z,99.99
2023-04-02T01:41:07.752Z,99.99
2023-04-02T01:42:07.748Z,99.99
2023-04-02T01:43:07.734Z,99.99
2023-04-02T01:44:07.728Z,99.99
2023-04-02T01:45:07.712Z,99.99
2023-04-02T01:46:07.754Z,99.99
2023-04-02T01:47:07.692Z,99.99
2023-04-02T01:48:07.791Z,99.99
2023-04-02T01:49:07.675Z,99.99
2023-04-02T01:50:07.676Z,99.99
2023-04-02T01:51:07.663Z,99.99
2023-04-02T01:52:07.642Z,99.99
2023-04-02T01:53:07.630Z,99.99
2023-04-02T01:54:07.632Z,99.99
2023-04-02T01:55:07.624Z,99.99
2023-04-02T01:56:07.606Z,99.99
2023-04-02T01:57:07.656Z,99.99
2023-04-02T01:58:13.592Z,99.99
2023-04-02T01:59:07.566Z,99.99
2023-04-02T02:00:07.565Z,99.99
2023-04-02T02:01:07.569Z,99.99
2023-04-02T02:02:07.586Z,99.99
2023-04-02T02:03:07.538Z,99.99
2023-04-02T02:04:09.575Z,99.99
2023-04-02T02:05:07.510Z,99.99
2023-04-02T02:06:07.499Z,99.99
2023-04-02T02:07:07.495Z,99.99
2023-04-02T02:08:07.471Z,99.99
2023-04-02T02:09:13.478Z,99.99
2023-04-02T02:10:07.446Z,99.99
2023-04-02T02:11:07.701Z,99.99
2023-04-02T02:12:07.427Z,99.99
2023-04-02T02:13:07.429Z,99.99
2023-04-02T02:14:07.410Z,99.99
2023-04-02T02:15:07.412Z,99.99
2023-04-02T02:16:07.449Z,99.99
2023-04-02T02:17:07.404Z,99.99
2023-04-02T02:18:07.368Z,99.99
2023-04-02T02:19:07.370Z,99.99
2023-04-02T02:20:07.352Z,99.99
2023-04-02T02:21:07.347Z,99.99
2023-04-02T02:22:07.326Z,99.99
2023-04-02T02:23:07.330Z,99.99
2023-04-02T02:24:07.310Z,99.99
2023-04-02T02:25:07.302Z,99.99
2023-04-02T02:26:07.289Z,99.99
2023-04-02T02:27:07.312Z,99.99
2023-04-02T02:28:07.271Z,99.99
2023-04-02T02:29:07.261Z,99.99
2023-04-02T02:30:13.262Z,99.99
2023-04-02T02:31:07.243Z,99.99
2023-04-02T02:32:07.295Z,99.99
2023-04-02T02:33:07.227Z,99.99
2023-04-02T02:34:07.212Z,99.99
2023-04-02T02:35:07.404Z,99.99
2023-04-02T02:36:07.226Z,99.99
2023-04-02T02:37:07.213Z,99.99
2023-04-02T02:38:07.165Z,99.99
2023-04-02T02:39:13.168Z,99.99
2023-04-02T02:40:07.145Z,99.99
2023-04-02T02:41:07.141Z,99.99
2023-04-02T02:42:07.123Z,99.99
2023-04-02T02:43:07.157Z,99.99
2023-04-02T02:44:07.102Z,99.99
2023-04-02T02:45:07.101Z,99.99
2023-04-02T02:46:07.161Z,99.99
2023-04-02T02:47:07.077Z,99.99
2023-04-02T02:48:07.106Z,99.99
2023-04-02T02:49:07.061Z,99.99
2023-04-02T02:50:07.044Z,99.99
2023-04-02T02:51:07.037Z,99.99
2023-04-02T02:52:07.020Z,99.99
2023-04-02T02:53:07.015Z,99.99
2023-04-02T02:54:06.996Z,99.99
2023-04-02T02:55:07.009Z,99.99
2023-04-02T02:56:06.968Z,99.99
2023-04-02T02:57:07.005Z,99.99
2023-04-02T02:58:06.961Z,99.99
2023-04-02T02:59:06.992Z,99.99
2023-04-02T03:00:06.929Z,99.99
2023-04-02T03:01:12.960Z,99.99
2023-04-02T03:02:06.958Z,99.99
2023-04-02T03:03:06.957Z,99.99
2023-04-02T03:04:07.058Z,99.99
2023-04-02T03:05:06.890Z,99.99
2023-04-02T03:06:06.873Z,99.99
2023-04-02T03:07:07.076Z,99.99
2023-04-02T03:08:06.854Z,99.99
2023-04-02T03:09:06.851Z,99.99
2023-04-02T03:12:06.814Z,99.99
2023-04-02T03:56:06.361Z,99.99
2023-04-02T04:46:05.856Z,99.99
2023-04-02T04:47:05.807Z,99.99
2023-04-02T04:48:05.832Z,99.99
2023-04-02T04:49:05.758Z,99.99
2023-04-02T04:50:05.742Z,99.99
2023-04-02T04:51:05.763Z,99.99
2023-04-02T04:52:05.730Z,99.99
2023-04-02T04:53:05.744Z,99.99
2023-04-02T04:54:05.695Z,99.99
2023-04-02T04:55:06.108Z,99.99
2023-04-02T04:56:18.825Z,99.99
2023-04-02T04:57:06.715Z,99.99
2023-04-02T04:58:05.667Z,99.99
2023-04-02T04:59:05.656Z,99.99
2023-04-02T05:00:05.642Z,99.99
2023-04-02T05:01:05.646Z,99.99
2023-04-02T05:02:05.621Z,99.99
2023-04-02T05:03:05.671Z,99.99
2023-04-02T05:04:05.595Z,99.99
2023-04-02T05:05:05.620Z,99.99
2023-04-02T05:06:05.573Z,99.99
2023-04-02T05:07:05.603Z,99.99
2023-04-02T05:08:05.556Z,99.99
2023-04-02T05:09:05.552Z,99.99
2023-04-02T05:10:05.542Z,99.99
2023-04-02T05:11:05.538Z,99.99
2023-04-02T05:12:05.516Z,99.99
2023-04-02T05:13:07.559Z,99.99
2023-04-02T05:14:05.503Z,99.99
2023-04-02T05:15:05.488Z,99.99
2023-04-02T05:16:05.513Z,99.99
2023-04-02T05:17:05.468Z,99.99
2023-04-02T05:18:11.476Z,99.99
2023-04-02T05:19:05.482Z,99.99
2023-04-02T05:20:05.436Z,99.99
2023-04-02T05:21:05.418Z,99.99
2023-04-02T05:22:05.416Z,99.99
2023-04-02T05:23:05.432Z,99.99
2023-04-02T05:24:05.389Z,99.99
2023-04-02T05:25:05.378Z,99.99
2023-04-02T05:26:05.389Z,99.99
2023-04-02T05:27:05.355Z,99.99
2023-04-02T05:28:05.380Z,99.99
2023-04-02T05:29:05.341Z,99.99
2023-04-02T05:30:05.333Z,99.99
2023-04-02T05:31:05.550Z,99.99
2023-04-02T05:32:05.313Z,99.99
2023-04-02T05:33:05.394Z,99.99
2023-04-02T05:34:05.295Z,99.99
2023-04-02T05:35:05.279Z,99.99
2023-04-02T05:36:05.302Z,99.99
2023-04-02T05:37:06.928Z,99.99
2023-04-02T05:38:05.252Z,99.99
2023-04-02T05:39:05.265Z,99.99
2023-04-02T05:40:05.256Z,99.99
2023-04-02T05:41:05.419Z,99.99
2023-04-02T05:42:05.224Z,99.99
2023-04-02T05:43:05.200Z,99.99
2023-04-02T05:44:05.195Z,99.99
2023-04-02T05:45:05.180Z,99.99
2023-04-02T05:46:05.170Z,99.99
2023-04-02T05:47:05.146Z,99.99
2023-04-02T05:48:11.154Z,99.99
2023-04-02T05:49:05.130Z,99.99
2023-04-02T05:50:05.126Z,99.99
2023-04-02T05:51:05.108Z,99.99
2023-04-02T05:52:05.111Z,99.99
2023-04-02T05:53:06.137Z,99.99
2023-04-02T05:54:05.096Z,99.99
2023-04-02T05:55:05.111Z,99.99
2023-04-02T05:56:05.076Z,99.99
2023-04-02T05:57:05.083Z,99.99
2023-04-02T05:59:05.030Z,99.99
2023-04-02T06:00:05.036Z,99.99
2023-04-02T06:01:05.017Z,99.99
2023-04-02T06:02:05.033Z,99.99
2023-04-02T06:03:05.042Z,99.99
2023-04-02T06:04:05.055Z,99.99
2023-04-02T06:05:04.962Z,99.99
2023-04-02T06:06:04.965Z,99.99
2023-04-02T06:07:10.955Z,99.99
2023-04-02T06:08:04.949Z,99.99
2023-04-02T06:09:05.131Z,99.99
2023-04-02T06:10:04.956Z,99.99
2023-04-02T06:11:04.933Z,99.99
2023-04-02T06:12:04.905Z,99.99
2023-04-02T06:13:04.876Z,99.99
2023-04-02T06:14:04.891Z,99.99
2023-04-02T06:15:04.866Z,99.99
2023-04-02T06:16:04.852Z,99.99
2023-04-02T06:17:04.850Z,99.99
2023-04-02T06:18:04.906Z,99.99
2023-04-02T06:19:04.815Z,99.99
2023-04-02T06:20:04.812Z,99.99
2023-04-02T06:21:04.797Z,99.99
2023-04-02T06:22:04.794Z,99.99
2023-04-02T06:23:04.795Z,99.99
2023-04-02T06:24:10.775Z,99.99
2023-04-02T06:25:04.766Z,99.99
2023-04-02T06:26:04.750Z,99.99
2023-04-02T06:27:04.764Z,99.99
2023-04-02T06:28:04.734Z,99.99
2023-04-02T06:29:04.708Z,99.99
2023-04-02T06:30:04.715Z,99.99
2023-04-02T06:31:04.800Z,99.99
2023-04-02T06:32:04.697Z,99.99
2023-04-02T06:33:04.932Z,99.99
2023-04-02T06:34:04.685Z,99.99
2023-04-02T06:35:04.652Z,99.99
2023-04-02T06:36:04.707Z,99.99
2023-04-02T06:37:04.856Z,99.99
2023-04-02T06:38:04.645Z,99.99
2023-04-02T06:39:04.611Z,99.99
2023-04-02T06:40:04.614Z,99.99
2023-04-02T06:41:04.595Z,99.99
2023-04-02T06:42:04.597Z,99.99
2023-04-02T06:43:10.607Z,99.99
2023-04-02T06:44:10.571Z,99.99
2023-04-02T06:45:04.554Z,99.99
2023-04-02T06:46:04.618Z,99.99
2023-04-02T06:47:04.537Z,99.99
2023-04-02T06:48:04.608Z,99.99
2023-04-02T06:49:04.523Z,99.99
2023-04-02T06:50:10.516Z,99.99
2023-04-02T06:51:04.490Z,99.99
2023-04-02T06:52:04.490Z,99.99
2023-04-02T06:53:04.463Z,99.99
2023-04-02T06:54:04.465Z,99.99
2023-04-02T06:55:04.463Z,99.99
2023-04-02T06:56:10.470Z,99.99
2023-04-02T06:57:04.458Z,99.99
2023-04-02T06:58:04.421Z,99.99
2023-04-02T06:59:04.446Z,99.99
2023-04-02T07:00:04.403Z,99.99
2023-04-02T07:01:04.482Z,99.99
2023-04-02T07:02:04.377Z,99.99
2023-04-02T07:03:04.405Z,99.99
2023-04-02T07:04:04.353Z,99.99
2023-04-02T07:05:04.474Z,99.99
2023-04-02T07:06:04.339Z,99.99
2023-04-02T07:07:04.310Z,99.99
2023-04-02T07:08:04.315Z,99.99
2023-04-02T07:09:04.293Z,99.99
2023-04-02T07:10:04.292Z,99.99
2023-04-02T07:11:10.278Z,99.99
2023-04-02T07:12:04.274Z,99.99
2023-04-02T07:13:04.453Z,99.99
2023-04-02T07:14:04.250Z,99.99
2023-04-02T07:15:04.255Z,99.99
2023-04-02T07:16:04.488Z,99.99
2023-04-02T07:17:04.206Z,99.99
2023-04-02T07:18:04.300Z,99.99
2023-04-02T07:19:04.195Z,99.99
2023-04-02T07:20:04.185Z,99.99
2023-04-02T07:21:04.164Z,99.99
2023-04-02T07:22:04.154Z,99.99
2023-04-02T07:23:04.152Z,99.99
2023-04-02T07:24:04.134Z,99.99
2023-04-02T07:25:04.136Z,99.99
2023-04-02T07:26:04.116Z,99.99
2023-04-02T07:27:04.113Z,99.99
2023-04-02T07:28:04.099Z,99.99
2023-04-02T07:29:04.087Z,99.99
2023-04-02T07:30:04.074Z,99.99
2023-04-02T07:31:04.131Z,99.99
2023-04-02T07:32:04.048Z,99.99
2023-04-02T07:33:04.078Z,99.99
2023-04-02T07:34:04.029Z,99.99
2023-04-02T07:35:04.028Z,99.99
2023-04-02T07:36:04.049Z,99.99
2023-04-02T07:37:04.005Z,99.99
2023-04-02T07:38:03.983Z,99.99
2023-04-02T07:39:03.986Z,99.99
2023-04-02T07:40:03.961Z,99.99
2023-04-02T07:41:03.973Z,99.99
2023-04-02T07:42:04.149Z,99.99
2023-04-02T07:43:04.151Z,99.99
2023-04-02T07:44:03.946Z,99.99
2023-04-02T07:45:05.931Z,99.99
2023-04-02T07:46:04.116Z,99.99
2023-04-02T07:47:04.106Z,99.99
2023-04-02T07:48:10.089Z,99.99
2023-04-02T07:49:05.927Z,99.99
2023-04-02T07:50:03.881Z,99.99
2023-04-02T07:51:03.852Z,99.99
2023-04-02T07:52:03.853Z,99.99
2023-04-02T07:53:03.835Z,99.99
2023-04-02T07:54:03.835Z,99.99
2023-04-02T07:55:03.812Z,99.99
2023-04-02T07:56:03.821Z,99.99
2023-04-02T07:57:03.820Z,99.99
2023-04-02T07:58:03.787Z,99.99
2023-04-02T07:59:03.765Z,99.99
2023-04-02T08:00:03.765Z,99.99
2023-04-02T08:01:03.888Z,99.99
2023-04-02T08:02:03.768Z,99.99
2023-04-02T08:03:03.862Z,99.99
2023-04-02T08:04:09.770Z,99.99
2023-04-02T08:05:03.710Z,99.99
2023-04-02T08:06:09.711Z,99.99
2023-04-02T08:07:03.694Z,99.99
2023-04-02T08:08:03.750Z,99.99
2023-04-02T08:09:03.679Z,99.99
2023-04-02T08:10:03.674Z,99.99
2023-04-02T08:11:03.651Z,99.99
2023-04-02T08:12:03.644Z,99.99
2023-04-02T08:13:09.637Z,99.99
2023-04-02T08:14:03.619Z,99.99
2023-04-02T08:15:03.601Z,99.99
2023-04-02T08:16:03.595Z,99.99
2023-04-02T08:17:03.596Z,99.99
2023-04-02T08:18:03.620Z,99.99
2023-04-02T08:19:03.586Z,99.99
2023-04-02T08:20:03.564Z,99.99
2023-04-02T08:21:03.545Z,99.99
2023-04-02T08:22:03.532Z,99.99
2023-04-02T08:23:03.570Z,99.99
2023-04-02T08:24:05.562Z,99.99
2023-04-02T08:25:03.507Z,99.99
2023-04-02T08:26:03.485Z,99.99
2023-04-02T08:27:03.486Z,99.99
2023-04-02T08:28:03.669Z,99.99
2023-04-02T08:29:03.674Z,99.99
2023-04-02T08:30:03.464Z,99.99
2023-04-02T08:31:03.539Z,99.99
2023-04-02T08:32:03.439Z,99.99
2023-04-02T08:33:03.668Z,99.99
2023-04-02T08:34:03.406Z,99.99
2023-04-02T08:35:09.439Z,99.99
2023-04-02T08:36:03.445Z,99.99
2023-04-02T08:37:03.397Z,99.99
2023-04-02T08:38:03.363Z,99.99
2023-04-02T08:39:03.353Z,99.99
2023-04-02T08:40:03.345Z,99.99
2023-04-02T08:41:03.341Z,99.99
2023-04-02T08:42:03.327Z,99.99
2023-04-02T08:43:03.321Z,99.99
2023-04-02T08:44:03.304Z,99.99
2023-04-02T08:45:10.797Z,99.99
2023-04-02T08:46:04.327Z,99.99
2023-04-02T08:47:09.285Z,99.99
2023-04-02T08:48:03.526Z,99.99
2023-04-02T08:49:03.458Z,99.99
2023-04-02T08:50:03.233Z,99.99
2023-04-02T08:51:03.253Z,99.99
2023-04-02T08:52:03.221Z,99.99
2023-04-02T08:53:03.210Z,99.99
2023-04-02T08:54:09.211Z,99.99
2023-04-02T08:55:03.402Z,99.99
2023-04-02T08:56:03.171Z,99.99
2023-04-02T08:57:03.273Z,99.99
2023-04-02T08:58:03.149Z,99.99
2023-04-02T08:59:03.146Z,99.99
2023-04-02T09:00:03.135Z,99.99
2023-04-02T09:01:03.127Z,99.99
2023-04-02T09:02:03.393Z,99.99
2023-04-02T09:03:03.189Z,99.99
2023-04-02T09:04:03.089Z,99.99
2023-04-02T09:05:03.124Z,99.99
2023-04-02T09:06:03.065Z,99.99
2023-04-02T09:07:03.081Z,99.99
2023-04-02T09:08:03.039Z,99.99
2023-04-02T09:09:03.052Z,99.99
2023-04-02T09:10:03.033Z,99.99
2023-04-02T09:11:03.018Z,99.99
2023-04-02T09:12:03.011Z,99.99
2023-04-02T09:13:03.006Z,99.99
2023-04-02T09:14:08.998Z,99.99
2023-04-02T09:15:03.007Z,99.99
2023-04-02T09:16:03.032Z,99.51
2023-04-02T09:17:02.954Z,99.99
2023-04-02T09:18:02.950Z,99.99
2023-04-02T09:19:02.939Z,99.99
2023-04-02T09:20:02.918Z,98.59
2023-04-02T09:21:02.916Z,99.41
2023-04-02T09:22:03.094Z,99.99
2023-04-02T09:23:02.914Z,99.99
2023-04-02T09:24:04.017Z,99.87
2023-04-02T09:25:02.877Z,99.46
2023-04-02T09:26:04.559Z,99.99
2023-04-02T09:27:02.878Z,99.99
2023-04-02T09:28:03.042Z,99.83
2023-04-02T09:29:03.071Z,99.11
2023-04-02T09:30:37.522Z,98.40
2023-04-02T09:31:37.577Z,99.01
2023-04-02T09:32:43.516Z,99.32
2023-04-02T09:33:43.491Z,99.11
2023-04-02T09:34:37.463Z,99.17
2023-04-02T09:35:37.594Z,98.66
2023-04-02T09:36:37.447Z,99.02
2023-04-02T09:37:37.447Z,99.28
2023-04-02T09:38:37.652Z,96.93
2023-04-02T09:39:37.421Z,98.01
2023-04-02T09:40:37.401Z,96.68
2023-04-02T09:41:37.447Z,94.95
2023-04-02T09:42:37.377Z,95.92
2023-04-02T09:43:37.376Z,96.19
2023-04-02T09:44:37.361Z,95.22
2023-04-02T09:45:37.515Z,94.41
2023-04-02T09:46:37.395Z,94.51
2023-04-02T09:47:37.397Z,94.76
2023-04-02T09:48:37.318Z,94.15
2023-04-02T09:49:37.318Z,93.78
2023-04-02T09:50:37.297Z,93.21
2023-04-02T09:51:37.289Z,93.97
2023-04-02T09:52:37.276Z,94.89
2023-04-02T09:53:37.279Z,95.50
2023-04-02T09:54:37.277Z,95.65
2023-04-02T09:55:37.789Z,95.34
2023-04-02T09:56:37.232Z,96.31
2023-04-02T09:57:37.224Z,96.72
2023-04-02T09:58:37.207Z,97.64
2023-04-02T09:59:37.201Z,97.54
2023-04-02T10:00:37.204Z,98.15
2023-04-02T10:01:37.373Z,98.15
2023-04-02T10:02:37.238Z,99.02
2023-04-02T10:03:37.152Z,99.73
2023-04-02T10:04:37.205Z,98.26
2023-04-02T10:05:40.948Z,98.20
2023-04-02T10:06:37.116Z,98.82
2023-04-02T10:07:37.117Z,99.18
2023-04-02T10:08:37.096Z,98.51
2023-04-02T10:09:37.134Z,98.10
2023-04-02T10:10:37.390Z,97.18
2023-04-02T10:11:46.321Z,97.85
2023-04-02T10:12:38.095Z,96.63
2023-04-02T10:13:37.049Z,98.16
2023-04-02T10:14:37.037Z,97.96
2023-04-02T10:15:37.192Z,97.60
2023-04-02T10:16:37.084Z,95.92
2023-04-02T10:17:37.044Z,96.13
2023-04-02T10:18:36.996Z,95.92
2023-04-02T10:19:36.975Z,96.23
2023-04-02T10:20:50.416Z,95.97
2023-04-02T10:21:36.951Z,96.58
2023-04-02T10:22:36.955Z,96.42
2023-04-02T10:23:36.944Z,97.24
2023-04-02T10:24:36.931Z,96.52
2023-04-02T10:25:37.280Z,96.63
2023-04-02T10:26:36.952Z,96.78
2023-04-02T10:27:36.895Z,95.61
2023-04-02T10:28:36.886Z,95.87
2023-04-02T10:29:36.867Z,96.28
2023-04-02T10:30:36.889Z,97.60
2023-04-02T10:31:36.851Z,96.58
2023-04-02T10:32:36.925Z,96.22
2023-04-02T10:33:36.825Z,97.34
2023-04-02T10:34:36.833Z,96.32
2023-04-02T10:35:37.028Z,96.57
2023-04-02T10:36:36.813Z,97.69
2023-04-02T10:37:36.790Z,97.03
2023-04-02T10:38:36.789Z,96.93
2023-04-02T10:39:42.772Z,96.63
2023-04-02T10:40:36.767Z,96.12
2023-04-02T10:41:36.758Z,96.17
2023-04-02T10:42:36.784Z,97.30
2023-04-02T10:43:36.725Z,96.84
2023-04-02T10:44:36.721Z,95.42
2023-04-02T10:45:37.168Z,96.29
2023-04-02T10:46:36.772Z,95.63
2023-04-02T10:47:38.793Z,94.11
2023-04-02T10:48:36.668Z,94.11
2023-04-02T10:49:36.768Z,94.51
2023-04-02T10:50:36.660Z,94.16
2023-04-02T10:51:36.648Z,94.93
2023-04-02T10:52:36.632Z,94.12
2023-04-02T10:53:36.637Z,94.22
2023-04-02T10:54:36.607Z,92.84
2023-04-02T10:55:36.894Z,91.61
2023-04-02T10:56:47.966Z,91.92
2023-04-02T10:57:37.762Z,91.57
2023-04-02T10:58:36.586Z,90.86
2023-04-02T10:59:36.554Z,91.73
2023-04-02T11:00:36.549Z,91.79
2023-04-02T11:01:36.565Z,91.75
2023-04-02T11:02:36.911Z,91.24
2023-04-02T11:03:36.628Z,90.39
2023-04-02T11:04:36.528Z,90.24
2023-04-02T11:05:36.711Z,87.24
2023-04-02T11:06:36.475Z,89.41
2023-04-02T11:07:36.500Z,89.82
2023-04-02T11:08:38.521Z,89.15
2023-04-02T11:09:36.468Z,89.60
2023-04-02T11:10:36.485Z,93.46
2023-04-02T11:11:36.423Z,91.31
2023-04-02T11:12:41.374Z,92.74
2023-04-02T11:13:36.394Z,92.88
2023-04-02T11:14:36.425Z,92.36
2023-04-02T11:15:36.703Z,93.01
2023-04-02T11:16:38.860Z,95.46
2023-04-02T11:17:37.419Z,95.05
2023-04-02T11:18:36.362Z,94.89
2023-04-02T11:19:36.338Z,96.99
2023-04-02T11:20:36.343Z,97.66
2023-04-02T11:21:42.208Z,96.80
2023-04-02T11:22:37.344Z,97.06
2023-04-02T11:23:36.294Z,96.55
2023-04-02T11:24:36.285Z,97.22
2023-04-02T11:25:36.746Z,95.22
2023-04-02T11:26:36.277Z,95.89
2023-04-02T11:27:36.248Z,94.67
2023-04-02T11:28:36.247Z,93.92
2023-04-02T11:29:36.226Z,94.42
2023-04-02T11:30:42.259Z,94.78
2023-04-02T11:31:36.263Z,93.87
2023-04-02T11:32:36.230Z,96.00
2023-04-02T11:33:39.259Z,94.73
2023-04-02T11:34:42.191Z,93.65
2023-04-02T11:35:36.400Z,94.45
2023-04-02T11:36:36.158Z,95.88
2023-04-02T11:37:36.141Z,96.90
2023-04-02T11:38:36.137Z,95.21
2023-04-02T11:39:36.116Z,95.91
2023-04-02T11:40:36.114Z,98.05
2023-04-02T11:41:36.094Z,98.67
2023-04-02T11:42:36.104Z,98.10
2023-04-02T11:43:36.224Z,99.23
2023-04-02T11:44:36.070Z,98.41
2023-04-02T11:45:46.514Z,99.27
2023-04-02T11:46:36.113Z,99.27
2023-04-02T11:47:36.068Z,99.17
2023-04-02T11:48:36.062Z,99.62
2023-04-02T11:49:36.097Z,99.99
2023-04-02T11:50:36.009Z,99.87
2023-04-02T11:51:35.985Z,99.99
2023-04-02T11:52:35.988Z,99.99
2023-04-02T11:53:35.973Z,99.99
2023-04-02T11:54:35.961Z,99.99
2023-04-02T11:55:36.338Z,99.99
2023-04-02T11:56:35.940Z,99.99
2023-04-02T11:57:36.099Z,99.99
2023-04-02T11:58:35.921Z,99.99
2023-04-02T11:59:35.910Z,99.99
2023-04-02T12:00:36.106Z,99.99
2023-04-02T12:01:35.883Z,99.99
2023-04-02T12:02:36.043Z,99.99
2023-04-02T12:03:35.856Z,99.99
2023-04-02T12:04:41.869Z,99.99
2023-04-02T12:05:36.050Z,99.99
2023-04-02T12:06:42.046Z,99.99
2023-04-02T12:07:35.833Z,99.99
2023-04-02T12:08:44.224Z,99.99
2023-04-02T12:09:36.891Z,99.99
2023-04-02T12:10:41.796Z,99.99
2023-04-02T12:11:35.784Z,99.99
2023-04-02T12:12:35.772Z,99.99
2023-04-02T12:13:35.742Z,99.99
2023-04-02T12:14:35.760Z,99.99
2023-04-02T12:15:35.979Z,99.99
2023-04-02T12:16:35.789Z,99.99
2023-04-02T12:17:35.716Z,99.99
2023-04-02T12:18:35.723Z,99.99
2023-04-02T12:19:35.683Z,99.99
2023-04-02T12:20:35.899Z,99.99
2023-04-02T12:21:35.654Z,99.99
2023-04-02T12:22:35.654Z,99.99
2023-04-02T12:23:35.657Z,99.99
2023-04-02T12:24:35.629Z,99.99
2023-04-02T12:25:35.618Z,99.98
2023-04-02T12:26:35.624Z,99.99
2023-04-02T12:27:35.599Z,99.99
2023-04-02T12:28:35.587Z,99.99
2023-04-02T12:29:35.771Z,99.99
2023-04-02T12:30:35.772Z,99.99
2023-04-02T12:31:35.549Z,99.99
2023-04-02T12:32:35.578Z,99.99
2023-04-02T12:33:35.525Z,99.99
2023-04-02T12:34:35.745Z,99.99
2023-04-02T12:35:35.525Z,99.99
2023-04-02T12:36:35.713Z,99.99
2023-04-02T12:37:35.496Z,99.99
2023-04-02T12:38:35.479Z,99.99
2023-04-02T12:39:35.471Z,99.99
2023-04-02T12:40:35.763Z,99.99
2023-04-02T12:41:35.434Z,99.99
2023-04-02T12:42:35.436Z,99.99
2023-04-02T12:43:35.420Z,99.78
2023-04-02T12:44:35.412Z,98.96
2023-04-02T12:45:35.598Z,99.21
2023-04-02T12:46:35.537Z,98.91
2023-04-02T12:47:35.418Z,98.96
2023-04-02T12:48:35.374Z,99.27
2023-04-02T12:49:35.369Z,99.07
2023-04-02T12:50:35.660Z,97.33
2023-04-02T12:51:35.330Z,97.02
2023-04-02T12:52:35.329Z,98.66
2023-04-02T12:53:35.319Z,97.90
2023-04-02T12:54:35.306Z,97.85
2023-04-02T12:55:41.297Z,97.65
2023-04-02T12:56:35.286Z,97.85
2023-04-02T12:57:35.447Z,96.93
2023-04-02T12:58:41.280Z,96.99
2023-04-02T12:59:35.243Z,97.09
2023-04-02T13:00:35.532Z,96.58
2023-04-02T13:01:35.239Z,96.78
2023-04-02T13:02:41.306Z,95.26
2023-04-02T13:03:35.219Z,95.97
2023-04-02T13:04:35.238Z,95.56
2023-04-02T13:05:35.179Z,95.46
2023-04-02T13:06:35.218Z,96.74
2023-04-02T13:07:35.262Z,94.70
2023-04-02T13:08:35.150Z,94.14
2023-04-02T13:09:35.147Z,94.85
2023-04-02T13:10:35.431Z,95.05
2023-04-02T13:11:35.119Z,94.34
2023-04-02T13:12:35.125Z,93.36
2023-04-02T13:13:35.091Z,94.89
2023-04-02T13:14:35.088Z,95.20
2023-04-02T13:15:35.071Z,95.20
2023-04-02T13:16:41.163Z,95.09
2023-04-02T13:17:35.086Z,96.52
2023-04-02T13:18:35.050Z,95.95
2023-04-02T13:19:35.026Z,96.00
2023-04-02T13:20:35.308Z,97.13
2023-04-02T13:21:35.012Z,95.59
2023-04-02T13:22:35.044Z,96.72
2023-04-02T13:23:34.990Z,96.82
2023-04-02T13:24:34.982Z,97.29
2023-04-02T13:25:34.969Z,94.37
2023-04-02T13:26:34.978Z,96.31
2023-04-02T13:27:34.950Z,97.84
2023-04-02T13:28:34.953Z,97.49
2023-04-02T13:29:41.130Z,96.27
2023-04-02T13:30:35.157Z,96.42
2023-04-02T13:31:34.943Z,95.91
2023-04-02T13:32:34.951Z,94.03
2023-04-02T13:33:36.955Z,93.93
2023-04-02T13:34:34.876Z,94.85
2023-04-02T13:35:35.127Z,94.44
2023-04-02T13:36:40.858Z,92.50
2023-04-02T13:37:34.880Z,94.19
2023-04-02T13:38:34.850Z,92.82
2023-04-02T13:39:34.828Z,91.50
2023-04-02T13:40:34.970Z,92.48
2023-04-02T13:41:34.799Z,90.42
2023-04-02T13:42:40.795Z,93.48
2023-04-02T13:43:34.780Z,92.72
2023-04-02T13:44:34.761Z,93.23
2023-04-02T13:45:34.879Z,92.78
2023-04-02T13:46:34.737Z,91.87
2023-04-02T13:47:34.767Z,90.33
2023-04-02T13:48:40.728Z,92.94
2023-04-02T13:49:34.712Z,90.60
2023-04-02T13:50:34.981Z,91.00
2023-04-02T13:51:40.707Z,90.29
2023-04-02T13:52:40.677Z,88.76
2023-04-02T13:53:34.684Z,88.97
2023-04-02T13:54:40.691Z,89.11
2023-04-02T13:55:34.651Z,88.30
2023-04-02T13:56:34.638Z,89.93
2023-04-02T13:57:34.823Z,88.95
2023-04-02T13:58:34.609Z,90.48
2023-04-02T13:59:34.611Z,91.15
2023-04-02T14:00:34.728Z,91.56
2023-04-02T14:01:34.755Z,90.58
2023-04-02T14:02:34.582Z,89.97
2023-04-02T14:03:34.560Z,89.30
2023-04-02T14:04:34.774Z,90.05
2023-04-02T14:05:34.763Z,91.28
2023-04-02T14:06:34.523Z,90.10
2023-04-02T14:07:40.528Z,89.99
2023-04-02T14:08:34.504Z,90.85
2023-04-02T14:09:34.505Z,90.55
2023-04-02T14:10:34.504Z,91.57
2023-04-02T14:11:34.494Z,91.20
2023-04-02T14:12:34.460Z,91.61
2023-04-02T14:13:34.452Z,91.91
2023-04-02T14:14:34.638Z,91.65
2023-04-02T14:15:34.800Z,91.86
2023-04-02T14:16:34.457Z,92.57
2023-04-02T14:17:34.425Z,93.39
2023-04-02T14:18:34.393Z,93.18
2023-04-02T14:19:34.391Z,92.92
2023-04-02T14:20:34.367Z,92.92
2023-04-02T14:21:34.374Z,92.66
2023-04-02T14:22:34.361Z,92.76
2023-04-02T14:23:34.358Z,93.68
2023-04-02T14:24:34.343Z,93.17
2023-04-02T14:25:34.529Z,93.28
2023-04-02T14:26:34.340Z,92.35
2023-04-02T14:27:34.303Z,93.52
2023-04-02T14:28:34.297Z,93.32
2023-04-02T14:29:34.282Z,92.81
2023-04-02T14:30:40.336Z,92.29
2023-04-02T14:31:34.340Z,93.07
2023-04-02T14:32:34.310Z,92.87
2023-04-02T14:33:40.239Z,92.66
2023-04-02T14:34:34.227Z,92.55
2023-04-02T14:35:34.226Z,92.55
2023-04-02T14:36:34.209Z,92.46